Terminal Aerodrome Forecast
Issued by NWS Buffalo, NY

Home | Current Version | Previous Version | Text Only | Print | Product List | Glossary On
Versions: 1 2 3 4 5 6 7 8 9 10 11 12 13 14 15 16 17 18 19 20 21 22 23
000
FTUS41 KBUF 082102 AAB
TAFBUF
TAF AMD
KBUF 082102Z 0821/0918 27015G23KT P6SM SCT025 BKN050
     FM091000 29010KT P6SM BKN070
     FM091200 30009KT 5SM -SN BKN060=

USA.gov is the U.S. government's official web portal to all federal, state and local government web resources and services.